Time;durP1;ratioP1;P1;durP2;ratioP2;P2;SDS_P1;SDS_P2;PMS_P1;PMS_P2;Temp;Humidity;BMP_temperature;BMP_pressure;BME280_temperature;BME280_humidity;BME280_pressure;Samples;Min_cycle;Max_cycle;Signal;HPM_P1;HPM_P2
2022/11/06 00:00:20;;;;;;;1.85;0.40;;;;;;;6.83;100.00;100722.53;5043869;28;20052;-87
2022/11/06 00:02:45;;;;;;;2.05;0.60;;;;;;;6.73;100.00;100719.81;5044284;28;20049;-86
2022/11/06 00:07:56;;;;;;;3.67;0.50;;;;;;;6.66;100.00;100739.31;5047195;28;20074;-86
2022/11/06 00:10:21;;;;;;;5.95;0.60;;;;;;;6.68;100.00;100734.84;5045550;28;20033;-86
2022/11/06 00:12:48;;;;;;;9.75;0.77;;;;;;;6.71;100.00;100737.22;5049127;28;20076;-86
2022/11/06 00:15:13;;;;;;;2.67;0.82;;;;;;;6.76;100.00;100735.13;5041167;28;20067;-86
2022/11/06 00:17:40;;;;;;;3.15;0.80;;;;;;;6.72;100.00;100733.69;5038133;28;20052;-86
2022/11/06 00:20:06;;;;;;;2.25;0.60;;;;;;;6.62;100.00;100743.06;5042496;28;20031;-86
2022/11/06 00:22:33;;;;;;;2.85;1.08;;;;;;;6.52;100.00;100742.94;5031838;28;20049;-87
2022/11/06 00:25:00;;;;;;;1.42;0.50;;;;;;;6.48;100.00;100743.28;5043268;28;20087;-86
2022/11/06 00:27:26;;;;;;;3.92;0.60;;;;;;;6.39;100.00;100743.94;5045809;28;20108;-86
2022/11/06 00:29:51;;;;;;;4.43;1.00;;;;;;;6.40;100.00;100740.41;5034558;28;20026;-86
2022/11/06 00:32:16;;;;;;;1.35;0.45;;;;;;;6.36;100.00;100737.22;5038224;28;20037;-85
2022/11/06 00:34:42;;;;;;;3.35;0.70;;;;;;;6.33;100.00;100737.44;5037405;28;20447;-86
2022/11/06 00:37:07;;;;;;;2.95;0.60;;;;;;;6.31;100.00;100747.06;5040538;28;20033;-86
2022/11/06 00:39:33;;;;;;;2.83;0.90;;;;;;;6.24;100.00;100749.25;5038722;28;20056;-86
2022/11/06 00:41:58;;;;;;;5.45;1.48;;;;;;;6.19;100.00;100751.34;5035185;28;20108;-85
2022/11/06 00:44:23;;;;;;;5.18;0.85;;;;;;;6.14;100.00;100750.06;5026806;28;20037;-85
2022/11/06 00:46:49;;;;;;;2.83;0.73;;;;;;;6.13;100.00;100757.00;5036057;28;20111;-86
2022/11/06 00:49:14;;;;;;;8.18;0.90;;;;;;;6.30;100.00;100743.66;5034588;28;20151;-86
2022/11/06 00:51:40;;;;;;;7.07;1.65;;;;;;;6.33;100.00;100748.59;5043870;28;20029;-86
2022/11/06 00:54:08;;;;;;;7.32;0.70;;;;;;;6.31;100.00;100749.66;5041668;28;20037;-86
2022/11/06 00:56:34;;;;;;;7.30;0.70;;;;;;;6.25;100.00;100756.09;5040923;28;20026;-85
2022/11/06 00:59:03;;;;;;;2.42;0.60;;;;;;;6.21;100.00;100754.66;5043019;28;20059;-86
2022/11/06 01:01:34;;;;;;;6.72;0.68;;;;;;;6.38;100.00;100760.41;5044304;28;20226;-85
2022/11/06 01:04:02;;;;;;;2.63;0.73;;;;;;;6.51;100.00;100758.56;5038770;28;20036;-86
2022/11/06 01:06:31;;;;;;;3.47;0.70;;;;;;;6.62;100.00;100756.00;5038988;28;20055;-86
2022/11/06 01:08:57;;;;;;;5.32;1.08;;;;;;;6.65;100.00;100750.59;5041672;28;20590;-86
2022/11/06 01:11:30;;;;;;;2.08;0.47;;;;;;;6.68;100.00;100752.16;5039863;28;20028;-84
2022/11/06 01:13:58;;;;;;;2.42;0.60;;;;;;;6.76;100.00;100750.66;5014294;28;20390;-86
2022/11/06 01:16:24;;;;;;;3.60;0.40;;;;;;;6.88;100.00;100752.34;5038306;28;20384;-86
2022/11/06 01:18:52;;;;;;;1.95;0.47;;;;;;;6.89;100.00;100751.41;5036307;28;20090;-86
2022/11/06 01:21:20;;;;;;;1.85;0.50;;;;;;;6.77;100.00;100757.47;5027136;28;20059;-86
2022/11/06 01:23:46;;;;;;;1.40;0.50;;;;;;;6.66;100.00;100747.09;5018643;28;20049;-86
2022/11/06 01:26:13;;;;;;;1.58;0.50;;;;;;;6.51;100.00;100749.06;5020871;28;20414;-86
2022/11/06 01:28:40;;;;;;;1.85;0.50;;;;;;;6.53;100.00;100751.53;5024308;28;20045;-86
2022/11/06 01:31:09;;;;;;;1.98;0.73;;;;;;;6.50;100.00;100752.56;5025140;28;20045;-86
2022/11/06 01:33:34;;;;;;;3.17;0.40;;;;;;;6.39;100.00;100749.09;5024492;28;20425;-86
2022/11/06 01:36:00;;;;;;;1.58;0.60;;;;;;;6.30;100.00;100748.81;5021578;28;20072;-86
2022/11/06 01:38:26;;;;;;;1.20;0.40;;;;;;;6.35;100.00;100750.25;5023951;28;20091;-86
2022/11/06 01:40:51;;;;;;;2.90;0.35;;;;;;;6.37;100.00;100750.97;5003303;28;21398;-86
2022/11/06 01:43:21;;;;;;;1.50;0.30;;;;;;;6.26;100.00;100755.16;5026090;28;20052;-86
2022/11/06 01:45:54;;;;;;;1.33;0.43;;;;;;;6.21;100.00;100762.41;5014731;28;20121;-86
2022/11/06 01:48:23;;;;;;;1.48;0.28;;;;;;;6.23;100.00;100757.97;5027049;28;20388;-86
2022/11/06 01:50:51;;;;;;;0.90;0.30;;;;;;;6.21;100.00;100757.25;5021663;28;20034;-86
2022/11/06 01:53:17;;;;;;;1.75;0.40;;;;;;;6.20;100.00;100760.75;5021584;28;20120;-86
2022/11/06 01:55:46;;;;;;;3.95;0.43;;;;;;;6.17;100.00;100753.22;5026022;28;20144;-86
2022/11/06 01:58:15;;;;;;;2.45;0.40;;;;;;;6.14;100.00;100763.81;5002923;28;20474;-87
2022/11/06 02:00:42;;;;;;;3.08;0.50;;;;;;;6.10;100.00;100766.72;5018127;28;20492;-86
2022/11/06 02:03:08;;;;;;;3.22;0.80;;;;;;;6.12;100.00;100764.84;5024602;28;20072;-86
2022/11/06 02:05:35;;;;;;;2.72;0.60;;;;;;;6.15;100.00;100760.25;5023821;28;20030;-86
2022/11/06 02:08:01;;;;;;;2.58;0.55;;;;;;;6.13;100.00;100757.00;5024492;28;20029;-86
2022/11/06 02:10:28;;;;;;;2.03;0.30;;;;;;;6.13;100.00;100758.75;5019447;28;20041;-85
2022/11/06 02:13:17;;;;;;;1.30;0.25;;;;;;;6.11;100.00;100764.03;5024279;28;20450;-85
2022/11/06 02:15:49;;;;;;;1.52;0.45;;;;;;;6.03;100.00;100766.34;5021104;28;20141;-86
2022/11/06 02:18:26;;;;;;;1.92;0.28;;;;;;;5.96;100.00;100775.44;5025104;28;20124;-85
2022/11/06 02:21:06;;;;;;;1.77;0.77;;;;;;;5.97;100.00;100766.75;5015473;28;20091;-85
2022/11/06 02:24:07;;;;;;;1.75;0.30;;;;;;;5.94;100.00;100778.16;5049111;28;20056;-85
2022/11/06 02:26:56;;;;;;;1.52;0.32;;;;;;;5.94;100.00;100777.31;4969058;28;20035;-86
2022/11/06 02:29:34;;;;;;;5.85;0.32;;;;;;;5.92;100.00;100774.00;4970512;28;20406;-86
2022/11/06 02:32:05;;;;;;;1.23;0.30;;;;;;;5.89;100.00;100775.03;4971767;28;20590;-85
2022/11/06 02:34:34;;;;;;;4.15;0.50;;;;;;;5.87;100.00;100783.81;4953125;28;20368;-85
2022/11/06 02:37:05;;;;;;;1.58;0.20;;;;;;;5.85;100.00;100778.75;4970373;28;20042;-85
2022/11/06 02:39:34;;;;;;;2.72;0.35;;;;;;;5.85;100.00;100785.69;4949551;28;20114;-85
2022/11/06 02:42:02;;;;;;;3.20;0.40;;;;;;;5.84;100.00;100786.59;4972677;28;20577;-85
2022/11/06 02:44:31;;;;;;;0.82;0.30;;;;;;;5.76;100.00;100788.91;4971539;28;20093;-86
2022/11/06 02:47:11;;;;;;;0.90;0.30;;;;;;;5.79;100.00;100797.28;4971913;28;20054;-85
2022/11/06 02:49:42;;;;;;;1.25;0.55;;;;;;;5.82;100.00;100785.88;4956979;28;20043;-85
2022/11/06 02:52:16;;;;;;;0.98;0.40;;;;;;;5.95;100.00;100784.13;4965945;28;20035;-85
2022/11/06 02:54:48;;;;;;;2.58;0.57;;;;;;;5.99;100.00;100783.00;4973453;28;20356;-85
2022/11/06 02:57:16;;;;;;;1.48;0.60;;;;;;;5.98;100.00;100778.75;4971893;28;20030;-85
2022/11/06 03:00:06;;;;;;;3.40;0.52;;;;;;;5.97;100.00;100782.28;4975541;28;20523;-85
2022/11/06 03:02:52;;;;;;;1.88;0.40;;;;;;;5.90;100.00;100788.81;5045958;28;20485;-85
2022/11/06 03:05:30;;;;;;;4.00;0.60;;;;;;;5.88;100.00;100798.41;5041493;28;20051;-86
2022/11/06 03:08:25;;;;;;;3.42;0.50;;;;;;;6.15;100.00;100790.47;5052886;28;20053;-85
2022/11/06 03:11:02;;;;;;;2.78;0.30;;;;;;;6.51;100.00;100797.41;5046024;28;20086;-85
2022/11/06 03:13:47;;;;;;;2.65;0.60;;;;;;;6.66;100.00;100798.88;5051167;28;20056;-85
2022/11/06 03:16:51;;;;;;;0.90;0.40;;;;;;;6.51;100.00;100802.59;5053853;28;20028;-85
2022/11/06 03:19:41;;;;;;;1.40;0.30;;;;;;;6.42;100.00;100795.47;5034458;28;20040;-85
2022/11/06 03:22:18;;;;;;;2.85;0.30;;;;;;;6.42;100.00;100803.25;5038592;28;20144;-85
2022/11/06 03:24:50;;;;;;;2.25;0.52;;;;;;;6.58;100.00;100804.63;5049060;28;20069;-86
2022/11/06 03:27:24;;;;;;;2.50;0.30;;;;;;;6.58;100.00;100811.56;5046586;28;20045;-87
2022/11/06 03:30:10;;;;;;;2.33;0.50;;;;;;;6.53;100.00;100814.47;5050246;28;20032;-86
2022/11/06 03:32:57;;;;;;;4.73;0.43;;;;;;;6.55;100.00;100824.72;5033450;28;20126;-87
2022/11/06 03:35:39;;;;;;;2.50;0.60;;;;;;;6.44;100.00;100824.66;5027386;28;20442;-87
2022/11/06 03:38:36;;;;;;;2.30;0.20;;;;;;;6.40;100.00;100823.22;5051332;28;20052;-86
2022/11/06 03:41:09;;;;;;;0.98;0.30;;;;;;;6.32;100.00;100824.59;5046741;28;20033;-86
2022/11/06 03:43:37;;;;;;;4.95;0.45;;;;;;;6.19;100.00;100826.38;5039875;28;20124;-86
2022/11/06 03:46:12;;;;;;;3.35;0.40;;;;;;;6.12;100.00;100827.78;5055015;28;20068;-87
2022/11/06 03:48:42;;;;;;;0.82;0.40;;;;;;;6.07;100.00;100844.53;5042701;28;20407;-87
2022/11/06 03:51:15;;;;;;;1.98;0.40;;;;;;;5.99;100.00;100834.72;5049567;28;20045;-87
2022/11/06 03:53:49;;;;;;;1.10;0.30;;;;;;;6.00;100.00;100841.56;5056691;28;20126;-85
2022/11/06 03:56:21;;;;;;;2.03;0.70;;;;;;;5.93;100.00;100835.16;5030200;28;20044;-86
2022/11/06 03:58:48;;;;;;;1.33;0.47;;;;;;;5.95;100.00;100841.03;5051100;28;20090;-85
2022/11/06 04:01:18;;;;;;;0.80;0.30;;;;;;;5.98;100.00;100835.66;5051233;28;20039;-85
2022/11/06 04:03:55;;;;;;;1.48;0.40;;;;;;;5.94;100.00;100834.22;5056378;28;20384;-85
2022/11/06 04:06:27;;;;;;;1.35;0.30;;;;;;;5.93;100.00;100837.72;5045445;28;20074;-86
2022/11/06 04:14:30;;;;;;;1.48;0.65;;;;;;;5.92;100.00;100833.50;5047983;28;20521;-87
2022/11/06 04:17:01;;;;;;;4.07;0.70;;;;;;;5.98;100.00;100825.31;5054924;28;20041;-86
2022/11/06 04:19:26;;;;;;;2.65;0.68;;;;;;;5.94;100.00;100834.22;5048473;28;20043;-85
2022/11/06 04:22:09;;;;;;;1.38;0.68;;;;;;;5.94;100.00;100829.03;5034565;28;20132;-86
2022/11/06 04:28:30;;;;;;;1.80;0.60;;;;;;;5.89;100.00;100815.59;4985650;28;20049;-86
2022/11/06 04:31:14;;;;;;;1.40;0.43;;;;;;;5.86;100.00;100813.19;4989175;28;20053;-86
2022/11/06 04:33:56;;;;;;;1.52;0.38;;;;;;;5.82;100.00;100809.16;4987492;28;20061;-87
2022/11/06 04:36:34;;;;;;;2.90;0.50;;;;;;;5.77;100.00;100808.66;4975774;28;20031;-86
2022/11/06 04:39:08;;;;;;;0.77;0.40;;;;;;;5.75;100.00;100813.09;4979353;28;20034;-85
2022/11/06 04:42:12;;;;;;;1.33;0.70;;;;;;;5.73;100.00;100812.38;4974559;28;20034;-86
2022/11/06 04:44:43;;;;;;;2.40;0.40;;;;;;;5.67;100.00;100821.41;4906957;29;20043;-86
2022/11/06 04:47:14;;;;;;;1.30;0.40;;;;;;;5.61;100.00;100817.47;4907903;29;20044;-87
2022/11/06 04:49:42;;;;;;;0.82;0.40;;;;;;;5.60;100.00;100812.41;4908039;29;20055;-86
2022/11/06 04:52:12;;;;;;;1.45;0.45;;;;;;;5.58;100.00;100822.84;4908062;29;20067;-85
2022/11/06 04:54:38;;;;;;;1.42;0.38;;;;;;;5.55;100.00;100835.97;4908161;29;20062;-88
2022/11/06 04:57:03;;;;;;;1.08;0.50;;;;;;;5.50;100.00;100819.94;4904527;29;20138;-86
2022/11/06 04:59:33;;;;;;;1.27;0.30;;;;;;;5.66;100.00;100823.16;4906914;29;20493;-85
2022/11/06 05:01:59;;;;;;;1.00;0.40;;;;;;;5.70;100.00;100826.34;4903328;29;20098;-86
2022/11/06 05:04:24;;;;;;;2.40;0.40;;;;;;;5.66;100.00;100824.91;4950769;28;20453;-85
2022/11/06 05:06:50;;;;;;;1.17;0.35;;;;;;;5.53;100.00;100824.91;4948404;28;20042;-86
2022/11/06 05:09:15;;;;;;;0.63;0.20;;;;;;;5.52;100.00;100817.25;4944406;28;20039;-85
2022/11/06 05:11:41;;;;;;;2.08;0.45;;;;;;;5.41;100.00;100836.06;4934989;28;20042;-85
2022/11/06 05:14:06;;;;;;;1.17;0.40;;;;;;;5.46;100.00;100826.25;4947758;28;20055;-86
2022/11/06 05:16:32;;;;;;;1.95;0.30;;;;;;;5.47;100.00;100825.31;4951448;28;20402;-85
2022/11/06 05:18:57;;;;;;;2.95;0.30;;;;;;;5.65;100.00;100831.84;4946071;28;20494;-85
2022/11/06 05:24:07;;;;;;;1.02;0.30;;;;;;;5.95;100.00;100843.63;5052081;28;20079;-85
2022/11/06 05:26:32;;;;;;;0.77;0.25;;;;;;;6.09;100.00;100832.34;5055768;28;20052;-86
2022/11/06 05:28:58;;;;;;;2.03;0.20;;;;;;;6.08;100.00;100841.84;5047376;28;20079;-85
2022/11/06 05:31:24;;;;;;;1.88;0.30;;;;;;;6.09;100.00;100843.50;5049442;28;20028;-85
2022/11/06 05:33:50;;;;;;;0.90;0.30;;;;;;;6.06;100.00;100854.06;5050642;28;20115;-85
2022/11/06 05:36:15;;;;;;;0.90;0.20;;;;;;;5.98;100.00;100854.59;5044267;28;20029;-85
2022/11/06 05:38:41;;;;;;;2.15;0.30;;;;;;;6.03;100.00;100851.69;5048152;28;20100;-86
2022/11/06 05:41:06;;;;;;;0.63;0.20;;;;;;;5.99;100.00;100845.06;5055748;28;20044;-85
2022/11/06 05:43:32;;;;;;;1.70;0.20;;;;;;;5.85;100.00;100850.31;5053447;28;20040;-86
2022/11/06 05:45:59;;;;;;;4.30;0.40;;;;;;;5.82;100.00;100853.94;5048079;28;20071;-86
2022/11/06 05:48:25;;;;;;;1.20;0.25;;;;;;;5.89;100.00;100859.56;5047065;28;20035;-85
2022/11/06 05:50:50;;;;;;;0.65;0.20;;;;;;;5.86;100.00;100857.16;5044830;28;20053;-86
2022/11/06 05:53:16;;;;;;;2.85;0.40;;;;;;;5.80;100.00;100853.22;5043614;28;20032;-85
2022/11/06 05:55:41;;;;;;;2.53;0.43;;;;;;;5.75;100.00;100859.63;5047941;28;20079;-86
2022/11/06 05:58:07;;;;;;;0.70;0.30;;;;;;;5.64;100.00;100868.97;5041903;28;20037;-85
2022/11/06 06:00:32;;;;;;;2.00;0.30;;;;;;;5.63;100.00;100869.06;5043316;28;20087;-86
2022/11/06 06:02:58;;;;;;;1.02;0.30;;;;;;;5.60;100.00;100875.28;5041938;28;20037;-85
2022/11/06 06:05:23;;;;;;;2.58;0.40;;;;;;;5.54;100.00;100870.50;5028021;28;20430;-85
2022/11/06 06:07:48;;;;;;;1.20;0.38;;;;;;;5.49;100.00;100882.06;5051908;28;20515;-86
2022/11/06 06:10:14;;;;;;;0.93;0.40;;;;;;;5.43;100.00;100879.91;5042554;28;20032;-85
2022/11/06 06:12:39;;;;;;;0.80;0.30;;;;;;;5.32;100.00;100893.50;5056430;28;20395;-87
2022/11/06 06:15:08;;;;;;;1.90;0.60;;;;;;;5.33;100.00;100898.59;5055447;28;20123;-85
2022/11/06 06:17:34;;;;;;;0.70;0.40;;;;;;;5.37;100.00;100896.63;5055792;28;20043;-86
2022/11/06 06:19:59;;;;;;;2.35;0.35;;;;;;;5.44;100.00;100889.31;5035136;28;20075;-86
2022/11/06 06:22:25;;;;;;;2.35;0.68;;;;;;;5.51;100.00;100895.72;5054409;28;20049;-86
2022/11/06 06:24:50;;;;;;;3.00;0.30;;;;;;;5.55;100.00;100897.19;5060175;28;20118;-85
2022/11/06 06:27:16;;;;;;;3.45;0.40;;;;;;;5.57;100.00;100893.56;5046023;28;20421;-84
2022/11/06 06:29:41;;;;;;;1.42;0.45;;;;;;;5.58;100.00;100892.63;5044652;28;20029;-87
2022/11/06 06:32:07;;;;;;;1.33;0.70;;;;;;;5.64;100.00;100897.41;5046598;28;20103;-85
2022/11/06 06:34:32;;;;;;;1.48;0.35;;;;;;;5.67;100.00;100888.63;5029285;28;20325;-87
2022/11/06 06:36:57;;;;;;;2.08;0.60;;;;;;;5.74;100.00;100897.59;5049909;28;20040;-87
2022/11/06 06:39:23;;;;;;;3.42;0.52;;;;;;;5.82;100.00;100892.72;5046776;28;20033;-85
2022/11/06 06:41:48;;;;;;;1.90;0.30;;;;;;;5.92;100.00;100900.72;5048752;28;20035;-85
2022/11/06 06:44:15;;;;;;;2.50;1.02;;;;;;;6.02;100.00;100906.94;5043015;28;20332;-86
2022/11/06 06:46:40;;;;;;;1.50;0.50;;;;;;;6.04;100.00;100905.06;5051751;28;20036;-85
2022/11/06 06:49:06;;;;;;;5.07;0.32;;;;;;;6.07;100.00;100904.03;5046436;28;20611;-85
2022/11/06 06:51:32;;;;;;;2.15;0.50;;;;;;;6.13;100.00;100907.03;5050798;28;20037;-86
2022/11/06 06:53:57;;;;;;;0.93;0.35;;;;;;;6.16;100.00;100911.97;5048843;28;20045;-85
2022/11/06 06:56:22;;;;;;;1.05;0.30;;;;;;;6.19;100.00;100905.75;5042144;28;20120;-85
2022/11/06 06:58:48;;;;;;;1.63;0.30;;;;;;;6.30;100.00;100906.69;5050371;28;20032;-86
2022/11/06 07:01:14;;;;;;;2.45;0.35;;;;;;;6.46;100.00;100910.81;5050445;28;20037;-86
2022/11/06 07:03:39;;;;;;;1.08;0.30;;;;;;;6.62;100.00;100903.59;5043571;28;20029;-86
2022/11/06 07:06:06;;;;;;;0.80;0.47;;;;;;;6.75;100.00;100906.16;5042778;28;20071;-85
2022/11/06 07:08:32;;;;;;;0.80;0.20;;;;;;;6.84;100.00;100908.91;5051192;28;20024;-85
2022/11/06 07:11:03;;;;;;;1.77;0.30;;;;;;;6.95;100.00;100916.75;5047565;28;20036;-84
2022/11/06 07:13:29;;;;;;;5.78;0.30;;;;;;;7.23;100.00;100915.56;5040661;28;20666;-84
2022/11/06 07:15:54;;;;;;;1.60;0.20;;;;;;;7.32;100.00;100914.88;5053210;28;20157;-85
2022/11/06 07:18:20;;;;;;;0.60;0.22;;;;;;;7.38;100.00;100917.97;5051647;28;20302;-85
2022/11/06 07:20:46;;;;;;;1.33;0.30;;;;;;;7.48;100.00;100921.53;5045933;28;20025;-86
2022/11/06 07:23:11;;;;;;;3.80;0.30;;;;;;;7.61;100.00;100920.50;5038106;28;20171;-86
2022/11/06 07:25:36;;;;;;;1.90;0.63;;;;;;;7.66;100.00;100915.78;5031911;28;20461;-85
2022/11/06 07:28:04;;;;;;;3.38;0.82;;;;;;;7.70;100.00;100915.56;5037101;28;20461;-85
2022/11/06 07:30:30;;;;;;;12.07;5.03;;;;;;;7.76;100.00;100915.94;5030083;28;20086;-86
2022/11/06 07:32:58;;;;;;;17.38;6.57;;;;;;;7.85;100.00;100919.59;5040856;28;20053;-86
2022/11/06 07:35:23;;;;;;;29.95;10.15;;;;;;;7.89;100.00;100926.22;5053441;28;20060;-84
2022/11/06 07:37:49;;;;;;;6.43;2.20;;;;;;;8.16;100.00;100924.09;5048527;28;20507;-84
2022/11/06 07:40:14;;;;;;;4.00;1.38;;;;;;;8.39;100.00;100921.53;5055613;28;20539;-86
2022/11/06 07:42:40;;;;;;;4.60;1.83;;;;;;;8.49;100.00;100917.28;5048248;28;20057;-85
2022/11/06 07:45:06;;;;;;;3.42;1.20;;;;;;;8.51;100.00;100911.00;5052393;28;20366;-85
2022/11/06 07:47:31;;;;;;;3.35;0.98;;;;;;;8.55;100.00;100907.22;5052773;28;20033;-85
2022/11/06 07:49:57;;;;;;;3.03;0.98;;;;;;;8.60;100.00;100914.66;5051372;28;20033;-85
2022/11/06 07:52:22;;;;;;;1.90;0.80;;;;;;;8.61;100.00;100901.53;5046026;28;20503;-84
2022/11/06 07:54:48;;;;;;;3.55;0.82;;;;;;;8.71;100.00;100901.66;5049859;28;20432;-85
2022/11/06 07:57:14;;;;;;;3.28;0.60;;;;;;;8.89;100.00;100895.00;5062458;28;20077;-84
2022/11/06 07:59:39;;;;;;;1.42;0.50;;;;;;;9.01;100.00;100897.53;5050357;28;20063;-84
2022/11/06 08:02:05;;;;;;;4.55;0.50;;;;;;;9.22;100.00;100896.63;5058222;28;20025;-84
2022/11/06 08:04:31;;;;;;;2.05;0.50;;;;;;;9.29;100.00;100904.75;5046953;28;20033;-84
2022/11/06 08:06:57;;;;;;;1.52;0.30;;;;;;;9.55;99.18;100907.78;5046630;28;20507;-86
2022/11/06 08:09:24;;;;;;;2.03;0.20;;;;;;;10.47;85.48;100903.44;5046306;28;20392;-84
2022/11/06 08:11:49;;;;;;;0.50;0.10;;;;;;;11.14;74.05;100913.13;5049755;28;20028;-85
2022/11/06 08:14:15;;;;;;;0.63;0.10;;;;;;;11.49;77.15;100910.78;5051395;28;20379;-84
2022/11/06 08:16:40;;;;;;;0.85;0.20;;;;;;;11.34;81.44;100908.75;5055207;28;20087;-84
2022/11/06 08:19:06;;;;;;;1.02;0.40;;;;;;;11.02;86.78;100922.03;5049510;28;20108;-84
2022/11/06 08:21:31;;;;;;;1.63;0.45;;;;;;;10.72;90.66;100921.19;5049358;28;20131;-85
2022/11/06 08:23:56;;;;;;;1.25;0.30;;;;;;;10.59;92.96;100925.81;5049140;28;20385;-84
2022/11/06 08:26:22;;;;;;;1.02;0.43;;;;;;;10.66;90.95;100918.31;5046455;28;20036;-84
2022/11/06 08:28:53;;;;;;;0.63;0.20;;;;;;;10.69;87.96;100926.69;5061445;28;20373;-84
2022/11/06 08:31:19;;;;;;;0.65;0.30;;;;;;;10.60;91.56;100923.09;5064488;28;20040;-84
2022/11/06 08:33:45;;;;;;;1.25;0.20;;;;;;;10.52;92.73;100922.09;5051458;28;20017;-83
2022/11/06 08:36:11;;;;;;;0.70;0.20;;;;;;;10.40;94.24;100920.59;5051384;28;20064;-85
2022/11/06 08:38:37;;;;;;;2.03;0.30;;;;;;;10.35;95.20;100920.16;5061060;28;20134;-84
2022/11/06 08:41:07;;;;;;;1.35;0.30;;;;;;;10.35;95.91;100914.94;5049447;28;20051;-84
2022/11/06 08:43:33;;;;;;;0.93;0.30;;;;;;;10.36;97.14;100913.97;5052588;28;20028;-85
2022/11/06 08:45:59;;;;;;;3.10;0.40;;;;;;;10.39;97.21;100924.13;5048099;28;20123;-84
2022/11/06 08:48:24;;;;;;;1.88;0.40;;;;;;;10.40;96.62;100923.97;5031973;28;20159;-84
2022/11/06 08:50:50;;;;;;;0.60;0.30;;;;;;;10.48;96.56;100920.72;5051863;28;20338;-84
2022/11/06 08:53:15;;;;;;;2.20;0.30;;;;;;;10.54;95.75;100917.59;5047669;28;20079;-84
2022/11/06 08:55:41;;;;;;;0.50;0.22;;;;;;;10.63;94.25;100924.59;5030537;28;20033;-84
2022/11/06 08:58:07;;;;;;;1.83;0.20;;;;;;;10.96;90.55;100915.59;5059255;28;20081;-84
2022/11/06 09:00:33;;;;;;;0.60;0.20;;;;;;;11.05;89.64;100919.16;5046596;28;20040;-84
2022/11/06 09:03:04;;;;;;;0.50;0.20;;;;;;;11.00;90.78;100910.94;5047547;28;20129;-84
2022/11/06 09:05:30;;;;;;;0.55;0.20;;;;;;;10.92;91.94;100912.44;5057628;28;20127;-83
2022/11/06 09:07:56;;;;;;;0.98;0.20;;;;;;;10.94;91.71;100915.72;5051791;28;20433;-83
2022/11/06 09:10:23;;;;;;;0.57;0.20;;;;;;;10.97;90.56;100912.03;5048565;28;20033;-85
2022/11/06 09:12:48;;;;;;;0.88;0.15;;;;;;;11.04;88.97;100910.53;5063165;28;20063;-83
2022/11/06 09:15:14;;;;;;;2.67;0.38;;;;;;;11.23;86.52;100914.94;5046508;28;20040;-83
2022/11/06 09:17:48;;;;;;;0.40;0.17;;;;;;;11.44;82.94;100912.16;5046641;28;20025;-84
2022/11/06 09:20:15;;;;;;;0.98;0.10;;;;;;;11.35;84.99;100908.59;5046177;28;20036;-84
2022/11/06 09:22:40;;;;;;;0.80;0.20;;;;;;;11.38;83.71;100908.31;5046289;28;20052;-84
2022/11/06 09:25:07;;;;;;;0.60;0.10;;;;;;;11.47;83.91;100898.81;5046190;28;20040;-83
2022/11/06 09:27:40;;;;;;;0.93;0.20;;;;;;;11.60;82.71;100901.97;5053871;28;20032;-85
2022/11/06 09:30:06;;;;;;;24.58;1.85;;;;;;;11.54;84.19;100897.31;5051376;28;20029;-85
2022/11/06 09:32:32;;;;;;;2.55;0.40;;;;;;;11.49;85.16;100907.34;5048030;28;20423;-85
2022/11/06 09:34:58;;;;;;;0.28;0.10;;;;;;;11.46;85.66;100905.00;5056609;28;20158;-85
2022/11/06 09:37:23;;;;;;;3.15;0.20;;;;;;;11.46;85.69;100905.00;5029355;28;20025;-87
2022/11/06 09:39:50;;;;;;;0.77;0.20;;;;;;;11.50;86.34;100904.59;5053095;28;20493;-86
2022/11/06 09:42:39;;;;;;;3.15;0.20;;;;;;;11.49;85.16;100905.56;5046363;28;20039;-84
2022/11/06 09:45:21;;;;;;;0.68;0.17;;;;;;;11.52;83.03;100904.44;5051576;28;20524;-84
2022/11/06 09:47:53;;;;;;;0.60;0.35;;;;;;;11.79;84.63;100912.41;5034291;28;20021;-84
2022/11/06 09:50:25;;;;;;;0.65;0.10;;;;;;;11.81;83.93;100897.44;5047111;28;20090;-84
2022/11/06 09:53:01;;;;;;;0.85;0.20;;;;;;;11.81;83.77;100902.66;5047044;28;20047;-84
2022/11/06 09:55:34;;;;;;;0.98;0.20;;;;;;;11.78;83.97;100910.75;5046924;28;20064;-85
2022/11/06 09:58:49;;;;;;;1.88;0.50;;;;;;;11.82;80.70;100900.84;5059782;28;20039;-86
2022/11/06 10:01:21;;;;;;;0.80;0.20;;;;;;;11.81;83.75;100907.03;5024196;28;20041;-85
2022/11/06 10:03:50;;;;;;;1.83;0.13;;;;;;;11.79;83.23;100904.56;5046707;28;20128;-86
2022/11/06 10:06:18;;;;;;;0.40;0.10;;;;;;;11.78;83.58;100905.53;5046179;28;20107;-85
2022/11/06 10:08:43;;;;;;;0.45;0.20;;;;;;;11.81;83.83;100907.03;5035137;28;20087;-85
2022/11/06 10:11:15;;;;;;;0.45;0.15;;;;;;;11.75;83.47;100912.81;5047807;28;20388;-85
2022/11/06 10:13:40;;;;;;;0.80;0.30;;;;;;;11.72;85.09;100916.50;5033173;28;20033;-86
2022/11/06 10:16:36;;;;;;;0.65;0.20;;;;;;;11.74;82.35;100903.31;5046692;28;20044;-86
2022/11/06 10:19:04;;;;;;;1.58;0.22;;;;;;;11.78;84.07;100895.09;5036223;28;20040;-86
2022/11/06 10:21:40;;;;;;;1.67;0.20;;;;;;;11.81;81.04;100899.22;5050831;28;20040;-86
2022/11/06 10:24:19;;;;;;;1.05;0.20;;;;;;;11.92;79.75;100906.84;5039228;28;20544;-86
2022/11/06 10:26:52;;;;;;;0.35;0.10;;;;;;;11.96;81.34;100898.59;5047902;28;20037;-87
2022/11/06 10:29:38;;;;;;;0.50;0.20;;;;;;;12.09;78.22;100889.63;5028066;28;20028;-86
2022/11/06 10:32:45;;;;;;;0.90;0.20;;;;;;;12.13;76.24;100881.34;5046174;28;20033;-87
2022/11/06 10:35:34;;;;;;;0.98;0.13;;;;;;;12.08;77.79;100880.97;5039843;28;20039;-86
2022/11/06 10:38:09;;;;;;;1.00;0.10;;;;;;;12.13;80.35;100873.50;5052802;28;20136;-87
2022/11/06 10:40:35;;;;;;;15.30;0.60;;;;;;;12.18;80.34;100870.47;5048134;28;20485;-86
2022/11/06 10:43:34;;;;;;;2.00;0.47;;;;;;;12.23;77.85;100863.03;5054912;28;20120;-87
2022/11/06 10:46:28;;;;;;;1.48;0.28;;;;;;;12.32;78.93;100861.31;5032757;28;20082;-86
2022/11/06 10:49:00;;;;;;;2.25;0.28;;;;;;;12.36;81.06;100850.41;5042923;28;20524;-87
2022/11/06 10:51:40;;;;;;;0.38;0.10;;;;;;;12.41;79.95;100845.56;5049029;28;20201;-87
2022/11/06 10:54:24;;;;;;;0.88;0.15;;;;;;;12.48;79.25;100838.78;5049804;28;20312;-86
2022/11/06 10:56:53;;;;;;;2.30;0.30;;;;;;;12.50;79.78;100839.47;5035459;28;20033;-87
2022/11/06 10:59:18;;;;;;;0.52;0.17;;;;;;;12.58;79.42;100826.50;5054253;28;20066;-87
2022/11/06 11:01:44;;;;;;;0.82;0.40;;;;;;;12.63;79.04;100823.44;5049721;28;20043;-86
2022/11/06 11:04:10;;;;;;;0.85;0.20;;;;;;;12.63;79.93;100823.44;5049581;28;20072;-86
2022/11/06 11:06:38;;;;;;;0.63;0.20;;;;;;;12.72;76.71;100822.53;5048186;28;20365;-86
2022/11/06 11:09:27;;;;;;;0.43;0.10;;;;;;;13.11;67.99;100830.03;5055015;28;20546;-87
2022/11/06 11:11:52;;;;;;;0.32;0.10;;;;;;;13.18;73.70;100824.09;5049202;28;20032;-88
2022/11/06 11:14:24;;;;;;;0.38;0.10;;;;;;;13.06;73.59;100827.88;5049389;28;20029;-86
2022/11/06 11:16:50;;;;;;;0.70;0.25;;;;;;;13.06;75.72;100817.41;5049232;28;20455;-87
2022/11/06 11:19:36;;;;;;;0.38;0.10;;;;;;;13.02;73.28;100812.63;5048615;28;20494;-87
2022/11/06 11:22:20;;;;;;;;;;;;;;;13.02;69.41;100802.19;5059094;28;20531;-87
2022/11/06 11:25:04;;;;;;;0.50;0.10;;;;;;;13.31;75.11;100810.59;5049520;28;20387;-87
2022/11/06 11:27:35;;;;;;;1.63;0.40;;;;;;;13.41;76.43;100803.44;5039398;28;20492;-87
2022/11/06 11:30:03;;;;;;;1.58;0.40;;;;;;;13.41;75.60;100798.22;5052043;28;20453;-87
2022/11/06 11:32:30;;;;;;;0.85;0.10;;;;;;;13.54;74.42;100795.19;5049263;28;20056;-87
2022/11/06 11:34:57;;;;;;;0.20;0.10;;;;;;;13.48;73.75;100788.78;5031067;28;20119;-87
2022/11/06 11:37:34;;;;;;;0.82;0.20;;;;;;;13.40;72.12;100786.09;5048324;28;20496;-87
2022/11/06 11:40:35;;;;;;;2.33;0.40;;;;;;;13.45;68.60;100788.25;5055920;28;20033;-87
2022/11/06 11:43:28;;;;;;;0.50;0.15;;;;;;;13.48;70.66;100783.53;5031980;28;20029;-87
2022/11/06 11:46:07;;;;;;;0.45;0.10;;;;;;;13.51;71.11;100775.38;5048675;28;20033;-86
2022/11/06 11:48:45;;;;;;;0.30;0.10;;;;;;;13.43;71.15;100775.31;5039735;28;20033;-86
2022/11/06 11:51:41;;;;;;;0.60;0.00;;;;;;;13.41;67.71;100771.22;5042007;28;20029;-86
2022/11/06 11:54:10;;;;;;;0.85;0.10;;;;;;;13.38;73.20;100767.13;5042104;28;20048;-86